createdAt,value
2019-03-23T00:01:53.979Z,5.25
2019-03-23T00:04:25.400Z,5.27
2019-03-23T00:07:14.127Z,5.31
2019-03-23T00:09:43.758Z,5.31
2019-03-23T00:12:13.240Z,5.29
2019-03-23T00:14:42.801Z,5.26
2019-03-23T00:17:12.283Z,5.24
2019-03-23T00:19:41.739Z,5.18
2019-03-23T00:22:11.249Z,5.19
2019-03-23T00:24:40.725Z,5.17
2019-03-23T00:27:10.191Z,5.12
2019-03-23T00:29:42.440Z,5.12
2019-03-23T00:32:12.069Z,5.12
2019-03-23T00:34:41.539Z,4.97
2019-03-23T00:37:11.214Z,4.93
2019-03-23T00:39:40.675Z,4.79
2019-03-23T00:42:10.127Z,4.82
2019-03-23T00:44:39.604Z,4.81
2019-03-23T00:47:09.073Z,4.77
2019-03-23T00:49:38.552Z,4.73
2019-03-23T00:52:08.089Z,4.77
2019-03-23T00:54:37.545Z,4.75
2019-03-23T00:57:08.809Z,4.80
2019-03-23T00:59:38.330Z,4.79
2019-03-23T01:02:07.780Z,4.66
2019-03-23T01:04:37.266Z,4.56
2019-03-23T01:07:06.837Z,4.54
2019-03-23T01:09:36.287Z,4.49
2019-03-23T01:12:06.005Z,4.46
2019-03-23T01:14:35.511Z,4.30
2019-03-23T01:17:05.035Z,4.03
2019-03-23T01:19:43.454Z,3.81
2019-03-23T01:22:12.937Z,4.01
2019-03-23T01:24:42.390Z,4.09
2019-03-23T01:27:11.869Z,4.15
2019-03-23T01:29:41.343Z,4.22
2019-03-23T01:32:10.836Z,4.32
2019-03-23T01:34:40.319Z,4.31
2019-03-23T01:37:09.820Z,4.38
2019-03-23T01:39:39.269Z,4.39
2019-03-23T01:42:08.795Z,4.35
2019-03-23T01:44:57.551Z,4.31
2019-03-23T01:47:27.069Z,4.24
2019-03-23T01:49:56.566Z,4.16
2019-03-23T01:52:26.039Z,4.14
2019-03-23T01:54:55.984Z,4.01
2019-03-23T01:57:26.515Z,4.00
2019-03-23T01:59:55.996Z,3.88
2019-03-23T02:02:25.490Z,3.89
2019-03-23T02:04:55.022Z,3.87
2019-03-23T02:07:24.484Z,3.73
2019-03-23T02:09:54.085Z,3.73
2019-03-23T02:12:23.712Z,3.70
2019-03-23T02:14:53.261Z,3.73
2019-03-23T02:17:22.763Z,3.73
2019-03-23T02:19:52.227Z,3.68
2019-03-23T02:22:21.689Z,3.70
2019-03-23T02:24:51.213Z,3.71
2019-03-23T02:27:20.690Z,3.68
2019-03-23T02:29:50.141Z,3.64
2019-03-23T02:32:19.683Z,3.64
2019-03-23T02:34:49.165Z,3.68
2019-03-23T02:37:27.604Z,3.69
2019-03-23T02:39:49.899Z,3.68
2019-03-23T02:42:19.383Z,3.69
2019-03-23T02:44:48.861Z,3.58
2019-03-23T02:47:18.422Z,3.55
2019-03-23T02:49:47.902Z,3.43
2019-03-23T02:52:17.345Z,3.36
2019-03-23T02:54:46.839Z,3.34
2019-03-23T02:57:16.333Z,3.26
2019-03-23T02:59:45.853Z,3.26
2019-03-23T03:02:15.587Z,3.24
2019-03-23T03:05:07.114Z,3.22
2019-03-23T03:07:42.511Z,3.21
2019-03-23T03:10:10.907Z,3.25
2019-03-23T03:12:40.455Z,3.24
2019-03-23T03:15:11.546Z,3.24
2019-03-23T03:17:41.023Z,3.28
2019-03-23T03:20:12.020Z,3.16
2019-03-23T03:22:41.530Z,3.16
2019-03-23T03:25:11.472Z,3.03
2019-03-23T03:27:40.919Z,2.97
2019-03-23T03:30:12.509Z,3.00
2019-03-23T03:32:41.989Z,2.99
2019-03-23T03:35:12.233Z,2.94
2019-03-23T03:37:55.414Z,2.86
2019-03-23T03:40:13.214Z,2.85
2019-03-23T03:42:42.673Z,2.79
2019-03-23T03:45:16.701Z,2.74
2019-03-23T03:47:46.186Z,2.78
2019-03-23T03:50:15.687Z,2.71
2019-03-23T03:52:45.268Z,2.67
2019-03-23T03:55:14.768Z,2.57
2019-03-23T03:57:44.243Z,2.63
2019-03-23T04:00:15.482Z,2.65
2019-03-23T04:02:44.940Z,2.59
2019-03-23T04:05:14.481Z,2.58
2019-03-23T04:07:43.956Z,2.61
2019-03-23T04:10:13.684Z,2.56
2019-03-23T04:12:43.145Z,2.59
2019-03-23T04:15:13.068Z,2.56
2019-03-23T04:17:42.575Z,2.55
2019-03-23T04:20:12.821Z,2.50
2019-03-23T04:22:42.350Z,2.54
2019-03-23T04:25:12.320Z,2.45
2019-03-23T04:27:41.822Z,2.45
2019-03-23T04:30:12.846Z,2.46
2019-03-23T04:32:42.482Z,2.45
2019-03-23T04:35:12.121Z,2.47
2019-03-23T04:37:42.029Z,2.48
2019-03-23T04:40:12.678Z,2.46
2019-03-23T04:42:42.480Z,2.37
2019-03-23T04:45:12.885Z,2.33
2019-03-23T04:47:42.373Z,2.36
2019-03-23T04:50:13.932Z,2.35
2019-03-23T04:52:43.459Z,2.25
2019-03-23T04:55:14.524Z,2.32
2019-03-23T04:57:43.983Z,2.34
2019-03-23T05:00:17.151Z,2.36
2019-03-23T05:02:47.260Z,2.40
2019-03-23T05:05:16.963Z,2.29
2019-03-23T05:07:46.549Z,2.25
2019-03-23T05:10:17.338Z,2.17
2019-03-23T05:12:46.829Z,2.23
2019-03-23T05:15:16.472Z,2.16
2019-03-23T05:17:45.956Z,2.16
2019-03-23T05:20:19.949Z,2.21
2019-03-23T05:22:49.823Z,2.25
2019-03-23T05:25:38.621Z,2.28
2019-03-23T05:28:08.126Z,2.14
2019-03-23T05:30:37.614Z,2.11
2019-03-23T05:33:07.272Z,2.14
2019-03-23T05:35:36.755Z,2.14
2019-03-23T05:38:06.250Z,2.10
2019-03-23T05:40:35.709Z,2.10
2019-03-23T05:43:24.551Z,2.12
2019-03-23T05:45:54.016Z,2.08
2019-03-23T05:48:23.501Z,2.11
2019-03-23T05:50:53.016Z,2.16
2019-03-23T05:53:28.676Z,2.24
2019-03-23T05:55:58.132Z,2.29
2019-03-23T05:58:46.973Z,2.32
2019-03-23T06:01:16.599Z,2.39
2019-03-23T06:03:46.060Z,2.47
2019-03-23T06:06:15.585Z,2.47
2019-03-23T06:08:54.525Z,2.53
2019-03-23T06:11:16.257Z,2.50
2019-03-23T06:13:45.769Z,2.56
2019-03-23T06:16:15.224Z,2.65
2019-03-23T06:18:44.689Z,2.88
2019-03-23T06:21:14.189Z,3.03
2019-03-23T06:23:43.684Z,3.05
2019-03-23T06:26:13.144Z,2.88
2019-03-23T06:28:42.652Z,3.19
2019-03-23T06:31:12.206Z,3.43
2019-03-23T06:33:41.673Z,2.75
2019-03-23T06:36:11.517Z,3.30
2019-03-23T06:38:41.000Z,3.83
2019-03-23T06:41:10.455Z,4.68
2019-03-23T06:43:39.960Z,6.03
2019-03-23T06:46:09.443Z,6.79
2019-03-23T06:48:38.917Z,7.22
2019-03-23T06:51:08.547Z,9.59
2019-03-23T06:53:38.028Z,11.97
2019-03-23T06:56:07.740Z,14.07
2019-03-23T06:58:38.642Z,15.90
2019-03-23T07:01:08.416Z,17.24
2019-03-23T07:03:38.199Z,15.44
2019-03-23T07:06:07.789Z,16.49
2019-03-23T07:08:37.246Z,18.38
2019-03-23T07:11:06.752Z,19.62
2019-03-23T07:13:36.260Z,17.72
2019-03-23T07:16:05.856Z,20.14
2019-03-23T07:18:35.355Z,21.67
2019-03-23T07:21:04.838Z,22.52
2019-03-23T07:23:34.346Z,22.99
2019-03-23T07:26:03.808Z,23.74
2019-03-23T07:28:33.327Z,24.37
2019-03-23T07:31:02.829Z,24.90
2019-03-23T07:33:32.315Z,25.47
2019-03-23T07:36:01.823Z,25.74
2019-03-23T07:38:31.314Z,23.67
2019-03-23T07:41:00.817Z,22.40
2019-03-23T07:43:30.474Z,23.11
2019-03-23T07:46:19.260Z,23.96
2019-03-23T07:48:48.785Z,25.86
2019-03-23T07:51:18.253Z,26.91
2019-03-23T07:53:47.757Z,27.08
2019-03-23T07:56:17.238Z,26.50
2019-03-23T07:58:46.908Z,27.15
2019-03-23T08:01:16.399Z,26.83
2019-03-23T08:03:47.074Z,27.31
2019-03-23T08:06:28.292Z,28.78
2019-03-23T08:08:57.831Z,29.30
2019-03-23T08:11:27.301Z,25.10
2019-03-23T08:13:56.779Z,26.05
2019-03-23T08:16:26.618Z,20.77
2019-03-23T08:18:56.191Z,17.03
2019-03-23T08:21:25.655Z,22.76
2019-03-23T08:23:55.183Z,26.30
2019-03-23T08:26:26.173Z,26.20
2019-03-23T08:28:55.665Z,28.49
2019-03-23T08:31:25.199Z,29.52
2019-03-23T08:33:54.675Z,30.69
2019-03-23T08:36:24.176Z,23.16
2019-03-23T08:38:53.719Z,25.82
2019-03-23T08:41:23.229Z,28.74
2019-03-23T08:43:52.729Z,31.45
2019-03-23T08:46:22.229Z,31.17
2019-03-23T08:48:51.739Z,32.69
2019-03-23T08:51:21.211Z,34.06
2019-03-23T08:53:50.935Z,34.65
2019-03-23T08:56:20.523Z,32.53
2019-03-23T08:59:09.323Z,33.29
2019-03-23T09:01:38.838Z,23.90
2019-03-23T09:04:08.714Z,27.45
2019-03-23T09:06:38.224Z,25.13
2019-03-23T09:09:08.343Z,24.91
2019-03-23T09:11:37.873Z,28.75
2019-03-23T09:14:07.353Z,29.66
2019-03-23T09:16:36.894Z,30.96
2019-03-23T09:19:06.554Z,32.93
2019-03-23T09:21:55.543Z,30.70
2019-03-23T09:24:25.025Z,26.64
2019-03-23T09:26:54.535Z,27.42
2019-03-23T09:29:24.320Z,31.13
2019-03-23T09:31:53.809Z,31.09
2019-03-23T09:34:23.303Z,26.03
2019-03-23T09:36:52.813Z,29.02
2019-03-23T09:39:22.304Z,32.02
2019-03-23T09:41:51.875Z,31.72
2019-03-23T09:44:21.456Z,30.39
2019-03-23T09:46:50.923Z,28.75
2019-03-23T09:49:22.091Z,29.31
2019-03-23T09:52:11.008Z,25.07
2019-03-23T09:54:59.819Z,22.76
2019-03-23T09:57:29.332Z,25.71
2019-03-23T09:59:58.804Z,26.06
2019-03-23T10:02:28.278Z,28.19
2019-03-23T10:04:58.128Z,30.08
2019-03-23T10:07:27.614Z,31.85
2019-03-23T10:10:21.787Z,31.56
2019-03-23T10:12:47.679Z,33.88
2019-03-23T10:15:17.156Z,33.61
2019-03-23T10:17:46.654Z,31.87
2019-03-23T10:20:16.181Z,33.17
2019-03-23T10:22:45.660Z,34.16
2019-03-23T10:25:15.143Z,34.03
2019-03-23T10:27:44.647Z,33.84
2019-03-23T10:30:33.816Z,31.64
2019-03-23T10:33:03.282Z,27.63
2019-03-23T10:35:32.894Z,24.81
2019-03-23T10:38:02.418Z,29.45
2019-03-23T10:40:32.977Z,31.11
2019-03-23T10:43:02.553Z,30.43
2019-03-23T10:45:32.143Z,32.28
2019-03-23T10:48:01.649Z,31.37
2019-03-23T10:50:31.174Z,29.82
2019-03-23T10:53:00.692Z,28.26
2019-03-23T10:55:30.163Z,29.97
2019-03-23T10:58:08.500Z,31.65
2019-03-23T11:00:57.309Z,32.87
2019-03-23T11:03:26.856Z,33.70
2019-03-23T11:05:56.683Z,31.38
2019-03-23T11:08:38.768Z,33.71
2019-03-23T11:11:09.949Z,32.17
2019-03-23T11:13:39.412Z,32.81
2019-03-23T11:16:08.917Z,33.41
2019-03-23T11:18:38.426Z,34.10
2019-03-23T11:21:07.899Z,34.12
2019-03-23T11:23:37.390Z,33.23
2019-03-23T11:26:08.376Z,31.83
2019-03-23T11:28:57.250Z,31.85
2019-03-23T11:31:26.783Z,31.83
2019-03-23T11:33:56.254Z,29.93
2019-03-23T11:36:45.103Z,29.23
2019-03-23T11:39:14.608Z,27.07
2019-03-23T11:42:03.592Z,24.95
2019-03-23T11:44:33.091Z,28.24
2019-03-23T11:47:21.929Z,29.34
2019-03-23T11:49:51.407Z,30.09
2019-03-23T11:52:20.882Z,30.09
2019-03-23T11:54:50.390Z,29.63
2019-03-23T11:57:19.866Z,28.15
2019-03-23T11:59:49.339Z,29.90
2019-03-23T12:02:18.842Z,30.07
2019-03-23T12:04:48.474Z,28.85
2019-03-23T12:07:18.055Z,28.39
2019-03-23T12:09:47.602Z,29.30
2019-03-23T12:12:17.107Z,29.80
2019-03-23T12:14:46.632Z,29.15
2019-03-23T12:17:16.172Z,29.57
2019-03-23T12:19:45.608Z,28.85
2019-03-23T12:22:15.087Z,29.74
2019-03-23T12:24:44.607Z,29.41
2019-03-23T12:27:14.118Z,28.85
2019-03-23T12:29:43.621Z,29.45
2019-03-23T12:32:13.209Z,25.25
2019-03-23T12:34:42.747Z,25.84
2019-03-23T12:37:31.608Z,26.77
2019-03-23T12:40:01.095Z,27.47
2019-03-23T12:42:30.581Z,27.70
2019-03-23T12:45:00.299Z,24.79
2019-03-23T12:47:29.847Z,25.22
2019-03-23T12:49:59.319Z,25.93
2019-03-23T12:52:29.255Z,27.31
2019-03-23T12:54:58.723Z,26.07
2019-03-23T12:57:28.215Z,24.49
2019-03-23T12:59:57.770Z,23.00
2019-03-23T13:02:46.572Z,24.01
2019-03-23T13:05:16.067Z,24.35
2019-03-23T13:07:46.545Z,23.99
2019-03-23T13:10:16.578Z,26.05
2019-03-23T13:12:46.049Z,27.29
2019-03-23T13:15:17.066Z,26.47
2019-03-23T13:17:46.710Z,27.51
2019-03-23T13:20:16.735Z,27.63
2019-03-23T13:23:05.489Z,26.93
2019-03-23T13:25:35.432Z,27.02
2019-03-23T13:28:05.012Z,27.04
2019-03-23T13:30:34.516Z,27.45
2019-03-23T13:33:04.024Z,26.24
2019-03-23T13:35:33.527Z,25.70
2019-03-23T13:38:03.008Z,26.03
2019-03-23T13:40:32.840Z,26.83
2019-03-23T13:43:03.600Z,28.05
2019-03-23T13:45:42.364Z,28.74
2019-03-23T13:48:06.047Z,29.71
2019-03-23T13:50:35.510Z,29.32
2019-03-23T13:53:24.325Z,28.28
2019-03-23T13:55:53.852Z,27.66
2019-03-23T13:58:23.339Z,27.48
2019-03-23T14:00:52.876Z,27.87
2019-03-23T14:03:22.345Z,27.21
2019-03-23T14:05:51.863Z,28.43
2019-03-23T14:08:21.566Z,28.75
2019-03-23T14:10:51.191Z,27.22
2019-03-23T14:13:20.672Z,27.88
2019-03-23T14:15:50.203Z,28.85
2019-03-23T14:18:19.686Z,27.67
2019-03-23T14:20:49.142Z,25.03
2019-03-23T14:23:18.664Z,26.40
2019-03-23T14:25:48.142Z,25.68
2019-03-23T14:28:17.645Z,26.98
2019-03-23T14:30:47.295Z,26.32
2019-03-23T14:33:16.787Z,26.36
2019-03-23T14:35:46.272Z,23.63
2019-03-23T14:38:15.837Z,22.67
2019-03-23T14:40:45.315Z,22.33
2019-03-23T14:43:14.823Z,22.79
2019-03-23T14:45:44.347Z,23.48
2019-03-23T14:48:13.819Z,22.98
2019-03-23T14:50:43.295Z,21.97
2019-03-23T14:53:12.821Z,20.98
2019-03-23T14:55:42.324Z,21.29
2019-03-23T14:58:11.785Z,21.51
2019-03-23T15:00:41.354Z,21.56
2019-03-23T15:03:10.847Z,21.52
2019-03-23T15:05:40.323Z,21.67
2019-03-23T15:08:09.989Z,20.54
2019-03-23T15:10:39.450Z,20.73
2019-03-23T15:13:08.930Z,21.10
2019-03-23T15:15:38.728Z,21.45
2019-03-23T15:18:08.217Z,21.50
2019-03-23T15:20:37.690Z,20.44
2019-03-23T15:23:07.414Z,20.13
2019-03-23T15:25:36.911Z,19.58
2019-03-23T15:28:06.392Z,20.03
2019-03-23T15:30:35.985Z,20.00
2019-03-23T15:33:05.822Z,19.67
2019-03-23T15:35:35.334Z,19.54
2019-03-23T15:38:04.999Z,20.22
2019-03-23T15:40:34.497Z,20.44
2019-03-23T15:43:03.999Z,20.24
2019-03-23T15:45:33.510Z,20.33
2019-03-23T15:48:03.010Z,19.76
2019-03-23T15:50:32.480Z,18.94
2019-03-23T15:53:02.089Z,19.14
2019-03-23T15:55:31.580Z,19.14
2019-03-23T15:58:01.080Z,19.41
2019-03-23T16:00:30.581Z,19.12
2019-03-23T16:03:00.042Z,18.19
2019-03-23T16:05:29.565Z,18.42
2019-03-23T16:07:59.034Z,18.21
2019-03-23T16:10:28.514Z,18.35
2019-03-23T16:12:57.990Z,17.80
2019-03-23T16:15:27.551Z,18.13
2019-03-23T16:17:57.025Z,17.47
2019-03-23T16:20:26.524Z,17.46
2019-03-23T16:22:56.043Z,17.11
2019-03-23T16:25:25.548Z,17.35
2019-03-23T16:27:55.083Z,17.60
2019-03-23T16:30:44.136Z,16.84
2019-03-23T16:33:13.644Z,16.86
2019-03-23T16:35:43.118Z,16.64
2019-03-23T16:38:12.637Z,16.76
2019-03-23T16:40:42.159Z,16.63
2019-03-23T16:43:11.681Z,16.77
2019-03-23T16:45:41.216Z,16.73
2019-03-23T16:48:10.722Z,16.36
2019-03-23T16:50:40.213Z,16.21
2019-03-23T16:53:09.744Z,15.84
2019-03-23T16:55:39.239Z,16.04
2019-03-23T16:58:15.796Z,15.82
2019-03-23T17:00:59.296Z,15.83
2019-03-23T17:03:28.768Z,15.65
2019-03-23T17:05:58.249Z,15.66
2019-03-23T17:08:27.907Z,15.55
2019-03-23T17:10:57.452Z,15.37
2019-03-23T17:13:26.948Z,14.94
2019-03-23T17:15:56.475Z,15.07
2019-03-23T17:18:25.969Z,14.91
2019-03-23T17:20:55.433Z,14.70
2019-03-23T17:23:24.972Z,14.66
2019-03-23T17:25:56.087Z,14.41
2019-03-23T17:28:25.586Z,14.58
2019-03-23T17:30:55.107Z,14.24
2019-03-23T17:33:24.602Z,14.40
2019-03-23T17:35:54.107Z,14.15
2019-03-23T17:38:23.627Z,14.34
2019-03-23T17:40:53.117Z,14.27
2019-03-23T17:43:22.622Z,14.31
2019-03-23T17:45:52.152Z,13.94
2019-03-23T17:48:23.169Z,14.05
2019-03-23T17:50:52.707Z,13.93
2019-03-23T17:53:22.231Z,13.56
2019-03-23T17:55:51.738Z,13.75
2019-03-23T17:58:40.702Z,13.80
2019-03-23T18:01:29.474Z,13.33
2019-03-23T18:03:58.999Z,13.10
2019-03-23T18:06:28.459Z,13.18
2019-03-23T18:08:57.999Z,13.16
2019-03-23T18:11:27.567Z,12.96
2019-03-23T18:13:57.429Z,12.89
2019-03-23T18:16:27.103Z,12.95
2019-03-23T18:18:56.594Z,12.85
2019-03-23T18:21:26.078Z,12.78
2019-03-23T18:23:55.720Z,12.84
2019-03-23T18:26:25.240Z,12.88
2019-03-23T18:28:54.710Z,12.81
2019-03-23T18:31:24.281Z,12.60
2019-03-23T18:33:53.807Z,12.63
2019-03-23T18:36:23.385Z,12.68
2019-03-23T18:38:52.877Z,12.71
2019-03-23T18:41:22.383Z,12.33
2019-03-23T18:43:51.875Z,12.24
2019-03-23T18:46:40.686Z,12.37
2019-03-23T18:49:10.260Z,12.39
2019-03-23T18:51:39.729Z,12.25
2019-03-23T18:54:09.284Z,12.05
2019-03-23T18:56:38.744Z,11.75
2019-03-23T18:59:08.248Z,11.68
2019-03-23T19:01:57.044Z,10.75
2019-03-23T19:04:26.616Z,11.17
2019-03-23T19:06:56.084Z,11.07
2019-03-23T19:09:25.633Z,11.11
2019-03-23T19:11:55.128Z,11.13
2019-03-23T19:14:24.631Z,10.99
2019-03-23T19:16:54.148Z,10.90
2019-03-23T19:19:23.641Z,10.86
2019-03-23T19:21:53.131Z,10.82
2019-03-23T19:24:22.619Z,10.72
2019-03-23T19:26:52.195Z,10.73
2019-03-23T19:29:21.680Z,10.88
2019-03-23T19:31:51.287Z,10.81
2019-03-23T19:34:20.794Z,10.68
2019-03-23T19:36:50.260Z,10.79
2019-03-23T19:39:19.769Z,10.85
2019-03-23T19:41:49.227Z,10.79
2019-03-23T19:44:18.698Z,10.74
2019-03-23T19:46:48.217Z,10.73
2019-03-23T19:49:17.682Z,10.60
2019-03-23T19:51:47.191Z,10.68
2019-03-23T19:54:16.696Z,10.74
2019-03-23T19:56:48.265Z,10.72
2019-03-23T19:59:17.733Z,10.63
2019-03-23T20:01:47.260Z,10.64
2019-03-23T20:04:16.764Z,10.58
2019-03-23T20:06:46.265Z,10.41
2019-03-23T20:09:15.781Z,10.50
2019-03-23T20:11:45.279Z,10.41
2019-03-23T20:14:14.753Z,10.43
2019-03-23T20:16:44.289Z,10.34
2019-03-23T20:19:14.102Z,10.38
2019-03-23T20:21:43.579Z,10.20
2019-03-23T20:24:13.090Z,10.13
2019-03-23T20:26:42.591Z,9.98
2019-03-23T20:29:13.604Z,9.76
2019-03-23T20:31:45.381Z,9.64
2019-03-23T20:34:33.588Z,9.52
2019-03-23T20:37:03.090Z,9.39
2019-03-23T20:39:32.637Z,9.35
2019-03-23T20:42:01.991Z,9.37
2019-03-23T20:44:31.503Z,9.29
2019-03-23T20:47:01.167Z,9.26
2019-03-23T20:49:30.928Z,9.27
2019-03-23T20:52:02.261Z,9.14
2019-03-23T20:54:44.200Z,9.02
2019-03-23T20:57:23.518Z,9.02
2019-03-23T20:59:44.896Z,8.93
2019-03-23T21:02:33.688Z,8.92
2019-03-23T21:05:03.359Z,8.90
2019-03-23T21:07:52.318Z,8.77
2019-03-23T21:10:21.871Z,8.53
2019-03-23T21:12:51.353Z,8.48
2019-03-23T21:15:20.838Z,8.37
2019-03-23T21:17:51.535Z,8.38
2019-03-23T21:20:33.154Z,8.35
2019-03-23T21:23:02.603Z,8.27
2019-03-23T21:25:32.068Z,8.25
2019-03-23T21:28:01.586Z,8.12
2019-03-23T21:30:50.355Z,8.14
2019-03-23T21:33:19.889Z,8.11
2019-03-23T21:35:49.334Z,7.99
2019-03-23T21:38:18.838Z,7.92
2019-03-23T21:40:48.351Z,7.74
2019-03-23T21:43:17.827Z,7.56
2019-03-23T21:45:47.311Z,7.48
2019-03-23T21:48:16.836Z,7.57
2019-03-23T21:50:47.747Z,7.53
2019-03-23T21:53:17.481Z,7.52
2019-03-23T21:55:47.014Z,7.49
2019-03-23T21:58:16.492Z,7.38
2019-03-23T22:00:45.950Z,7.42
2019-03-23T22:03:15.426Z,7.38
2019-03-23T22:05:44.953Z,7.33
2019-03-23T22:08:14.452Z,7.22
2019-03-23T22:10:43.920Z,7.16
2019-03-23T22:13:13.421Z,7.04
2019-03-23T22:15:42.910Z,7.03
2019-03-23T22:18:12.645Z,6.98
2019-03-23T22:20:42.202Z,6.88
2019-03-23T22:23:11.672Z,6.85
2019-03-23T22:25:41.175Z,6.77
2019-03-23T22:28:10.665Z,6.82
2019-03-23T22:30:40.159Z,6.75
2019-03-23T22:33:10.081Z,6.79
2019-03-23T22:35:39.853Z,6.61
2019-03-23T22:38:09.321Z,6.63
2019-03-23T22:40:39.131Z,6.51
2019-03-23T22:43:08.683Z,6.58
2019-03-23T22:45:38.143Z,6.48
2019-03-23T22:48:07.642Z,6.48
2019-03-23T22:50:37.150Z,6.56
2019-03-23T22:53:06.702Z,6.49
2019-03-23T22:55:36.164Z,6.46
2019-03-23T22:58:05.769Z,6.47
2019-03-23T23:00:38.525Z,6.49
2019-03-23T23:03:08.456Z,6.16
2019-03-23T23:05:37.917Z,6.23
2019-03-23T23:08:07.449Z,6.21
2019-03-23T23:10:37.053Z,6.11
2019-03-23T23:13:06.581Z,6.04
2019-03-23T23:15:36.067Z,6.06
2019-03-23T23:18:05.779Z,6.07
2019-03-23T23:20:55.127Z,6.06
2019-03-23T23:23:24.600Z,6.02
2019-03-23T23:25:54.146Z,5.95
2019-03-23T23:28:23.642Z,5.65
2019-03-23T23:30:53.192Z,5.69
2019-03-23T23:33:22.671Z,5.74
2019-03-23T23:35:52.158Z,5.76
2019-03-23T23:38:21.634Z,5.80
2019-03-23T23:40:51.104Z,5.75
2019-03-23T23:43:20.579Z,5.68
2019-03-23T23:45:50.337Z,5.69
2019-03-23T23:48:19.806Z,5.66
2019-03-23T23:50:49.338Z,5.65
2019-03-23T23:53:38.196Z,5.62
2019-03-23T23:56:07.701Z,5.61
2019-03-23T23:58:37.511Z,5.61
